Gamewell, North Carolina
Current Conditions -  °F | °C
As of 5:35 PM on Thursday 23 Oct 2014 (Local Time) from KMRN Reporting Station
Clear Clear  
Wind Chill: 67°   Ceiling: Unl
Heat Index: 67°   Visibility: 10mi
Dew Point: 37°   Wind: 6mph
Humidity: 33%   Direction: 360°N
Pressure: 30.05"   Gusts: NA
Location:  35.9726°N, 81.5331°W
Report Text: KMRN 232135Z AUTO 36005KT 10SM CLR 20/03 A3005 RMK AO2 T01960029
Loading
Personal Weather Stations






























Interactive Weather Map
Tropical Storm Tracking
New forecast layout! Learn more

10-Day Weather Forecast

Advertisements
Track Severe Weather on mobile